createdAt,value
2019-03-08T09:01:49.339Z,95355.41
2019-03-08T09:04:15.703Z,95349.56
2019-03-08T09:06:43.162Z,95356.77
2019-03-08T09:09:09.524Z,95350.67
2019-03-08T09:11:44.062Z,95346.83
2019-03-08T09:14:03.189Z,95342.95
2019-03-08T09:16:29.604Z,95349.77
2019-03-08T09:18:55.964Z,95345.17
2019-03-08T09:21:22.340Z,95345.20
2019-03-08T09:23:48.694Z,95348.69
2019-03-08T09:26:15.022Z,95350.09
2019-03-08T09:28:41.462Z,95349.98
2019-03-08T09:31:07.763Z,95346.88
2019-03-08T09:33:34.143Z,95344.65
2019-03-08T09:36:00.585Z,95345.61
2019-03-08T09:38:27.034Z,95344.70
2019-03-08T09:40:53.362Z,95339.61
2019-03-08T09:43:19.759Z,95345.63
2019-03-08T09:45:46.291Z,95348.09
2019-03-08T09:48:12.659Z,95347.27
2019-03-08T09:50:39.030Z,95347.28
2019-03-08T09:53:05.391Z,95341.42
2019-03-08T09:55:31.727Z,95344.81
2019-03-08T09:57:58.329Z,95343.78
2019-03-08T10:00:24.697Z,95332.84
2019-03-08T10:02:53.764Z,95331.18
2019-03-08T10:05:20.197Z,95328.02
2019-03-08T10:07:46.729Z,95326.97
2019-03-08T10:10:13.102Z,95325.81
2019-03-08T10:12:39.667Z,95323.58
2019-03-08T10:15:06.059Z,95320.41
2019-03-08T10:17:32.405Z,95313.73
2019-03-08T10:19:59.351Z,95308.44
2019-03-08T10:22:25.851Z,95310.10
2019-03-08T10:24:52.407Z,95312.20
2019-03-08T10:27:19.186Z,95314.08
2019-03-08T10:29:45.730Z,95310.92
2019-03-08T10:32:12.079Z,95309.97
2019-03-08T10:34:39.294Z,95307.98
2019-03-08T10:37:05.746Z,95304.55
2019-03-08T10:39:32.268Z,95310.20
2019-03-08T10:41:58.662Z,95304.81
2019-03-08T10:44:25.095Z,95300.14
2019-03-08T10:46:51.375Z,95293.91
2019-03-08T10:49:17.719Z,95278.16
2019-03-08T10:51:44.061Z,95281.91
2019-03-08T10:54:10.432Z,95283.30
2019-03-08T10:56:36.761Z,95281.44
2019-03-08T10:59:03.316Z,95277.07
2019-03-08T11:01:29.715Z,95274.05
2019-03-08T11:03:56.078Z,95268.75
2019-03-08T11:06:22.509Z,95273.91
2019-03-08T11:08:48.928Z,95270.53
2019-03-08T11:11:15.357Z,95259.16
2019-03-08T11:13:43.575Z,95263.60
2019-03-08T11:16:08.105Z,95250.11
2019-03-08T11:18:34.521Z,95246.02
2019-03-08T11:21:00.947Z,95240.25
2019-03-08T11:23:27.458Z,95240.25
2019-03-08T11:25:53.795Z,95228.39
2019-03-08T11:28:21.290Z,95231.88
2019-03-08T11:30:53.696Z,95224.92
2019-03-08T11:33:13.049Z,95222.23
2019-03-08T11:35:39.391Z,95221.30
2019-03-08T11:38:05.754Z,95216.73
2019-03-08T11:40:32.103Z,95216.27
2019-03-08T11:42:58.480Z,95210.39
2019-03-08T11:45:26.244Z,95211.32
2019-03-08T11:47:51.158Z,95204.62
2019-03-08T11:50:17.520Z,95197.90
2019-03-08T11:52:43.915Z,95202.03
2019-03-08T11:55:10.349Z,95201.92
2019-03-08T11:57:37.042Z,95194.17
2019-03-08T12:00:03.359Z,95193.81
2019-03-08T12:02:37.810Z,95183.19
2019-03-08T12:05:00.169Z,95183.05
2019-03-08T12:07:26.953Z,95178.78
2019-03-08T12:09:53.333Z,95178.42
2019-03-08T12:12:19.654Z,95177.39
2019-03-08T12:14:46.039Z,95168.44
2019-03-08T12:17:12.377Z,95166.83
2019-03-08T12:19:38.752Z,95170.70
2019-03-08T12:22:05.343Z,95166.95
2019-03-08T12:24:31.737Z,95167.30
2019-03-08T12:26:58.209Z,95166.36
2019-03-08T12:29:24.674Z,95165.14
2019-03-08T12:31:51.570Z,95154.59
2019-03-08T12:34:18.039Z,95157.39
2019-03-08T12:36:44.414Z,95151.33
2019-03-08T12:39:10.778Z,95150.98
2019-03-08T12:41:37.238Z,95148.87
2019-03-08T12:44:03.590Z,95140.75
2019-03-08T12:46:30.026Z,95139.82
2019-03-08T12:48:57.231Z,95147.21
2019-03-08T12:51:23.586Z,95143.08
2019-03-08T12:53:50.013Z,95145.20
2019-03-08T12:56:16.393Z,95138.34
2019-03-08T12:58:42.860Z,95140.49
2019-03-08T13:01:09.249Z,95138.52
2019-03-08T13:03:35.919Z,95134.70
2019-03-08T13:06:02.292Z,95134.56
2019-03-08T13:08:28.686Z,95127.17
2019-03-08T13:10:57.781Z,95125.67
2019-03-08T13:13:24.316Z,95121.74
2019-03-08T13:15:50.953Z,95124.27
2019-03-08T13:18:17.309Z,95123.86
2019-03-08T13:20:43.684Z,95129.77
2019-03-08T13:23:10.056Z,95127.44
2019-03-08T13:25:36.401Z,95122.98
2019-03-08T13:28:02.821Z,95116.83
2019-03-08T13:30:29.218Z,95115.91
2019-03-08T13:32:55.582Z,95109.45
2019-03-08T13:35:24.355Z,95110.48
2019-03-08T13:37:50.763Z,95105.58
2019-03-08T13:40:17.218Z,95102.63
2019-03-08T13:42:43.560Z,95101.12
2019-03-08T13:45:09.992Z,95096.26
2019-03-08T13:47:36.284Z,95094.05
2019-03-08T13:50:02.727Z,95087.59
2019-03-08T13:52:29.119Z,95090.39
2019-03-08T13:54:55.628Z,95081.80
2019-03-08T13:57:22.055Z,95085.36
2019-03-08T13:59:48.473Z,95077.61
2019-03-08T14:02:14.860Z,95084.23
2019-03-08T14:04:41.346Z,95081.57
2019-03-08T14:07:07.736Z,95079.46
2019-03-08T14:09:34.753Z,95082.00
2019-03-08T14:12:01.258Z,95087.58
2019-03-08T14:14:27.854Z,95087.73
2019-03-08T14:16:54.199Z,95087.84
2019-03-08T14:19:20.515Z,95082.11
2019-03-08T14:21:46.877Z,95081.33
2019-03-08T14:24:13.415Z,95082.98
2019-03-08T14:26:39.765Z,95078.70
2019-03-08T14:29:06.103Z,95074.88
2019-03-08T14:31:32.527Z,95069.75
2019-03-08T14:33:58.914Z,95075.69
2019-03-08T14:36:25.338Z,95073.06
2019-03-08T14:38:51.697Z,95077.81
2019-03-08T14:41:18.155Z,95074.36
2019-03-08T14:43:45.055Z,95067.92
2019-03-08T14:46:11.426Z,95079.01
2019-03-08T14:48:37.778Z,95075.33
2019-03-08T14:51:04.189Z,95079.27
2019-03-08T14:53:32.771Z,95081.55
2019-03-08T14:55:59.118Z,95087.07
2019-03-08T14:58:24.265Z,95081.59
2019-03-08T15:00:50.596Z,95083.76
2019-03-08T15:03:20.123Z,95089.02
2019-03-08T15:05:43.500Z,95090.58
2019-03-08T15:08:13.640Z,95083.97
2019-03-08T15:10:39.621Z,95094.20
2019-03-08T15:13:02.603Z,95092.91
2019-03-08T15:15:28.898Z,95093.88
2019-03-08T15:17:55.416Z,95095.44
2019-03-08T15:20:21.645Z,95085.42
2019-03-08T15:22:47.996Z,95085.68
2019-03-08T15:25:14.388Z,95088.05
2019-03-08T15:27:40.724Z,95085.68
2019-03-08T15:30:07.022Z,95093.32
2019-03-08T15:32:33.381Z,95090.64
2019-03-08T15:34:59.731Z,95091.72
2019-03-08T15:37:26.140Z,95094.09
2019-03-08T15:39:52.501Z,95091.36
2019-03-08T15:42:18.891Z,95096.17
2019-03-08T15:44:45.163Z,95100.05
2019-03-08T15:47:13.439Z,95099.94
2019-03-08T15:49:37.853Z,95098.76
2019-03-08T15:52:04.649Z,95103.71
2019-03-08T15:54:30.631Z,95107.48
2019-03-08T15:56:56.971Z,95109.96
2019-03-08T15:59:23.518Z,95110.64
2019-03-08T16:01:49.898Z,95123.09
2019-03-08T16:04:16.243Z,95126.54
2019-03-08T16:06:44.001Z,95136.26
2019-03-08T16:09:08.963Z,95134.86
2019-03-08T16:11:35.364Z,95143.91
2019-03-08T16:14:08.520Z,95147.78
2019-03-08T16:16:28.046Z,95148.28
2019-03-08T16:18:54.447Z,95149.33
2019-03-08T16:21:20.751Z,95146.14
2019-03-08T16:23:47.122Z,95145.10
2019-03-08T16:26:13.501Z,95153.56
2019-03-08T16:28:39.863Z,95147.22
2019-03-08T16:31:06.240Z,95154.75
2019-03-08T16:33:32.588Z,95150.88
2019-03-08T16:35:58.969Z,95148.19
2019-03-08T16:38:25.304Z,95151.34
2019-03-08T16:40:51.634Z,95148.08
2019-03-08T16:43:17.978Z,95152.06
2019-03-08T16:45:44.342Z,95155.25
2019-03-08T16:48:10.749Z,95155.61
2019-03-08T16:50:37.043Z,95163.36
2019-03-08T16:53:03.484Z,95158.09
2019-03-08T16:55:29.938Z,95166.41
2019-03-08T16:57:56.266Z,95167.84
2019-03-08T17:00:22.638Z,95168.06
2019-03-08T17:02:49.127Z,95165.01
2019-03-08T17:05:15.501Z,95169.34
2019-03-08T17:07:41.796Z,95174.30
2019-03-08T17:10:08.191Z,95181.36
2019-03-08T17:12:34.574Z,95185.56
2019-03-08T17:15:00.927Z,95186.98
2019-03-08T17:17:27.273Z,95186.52
2019-03-08T17:19:53.611Z,95188.99
2019-03-08T17:22:19.946Z,95191.22
2019-03-08T17:24:46.304Z,95199.78
2019-03-08T17:27:12.653Z,95202.02
2019-03-08T17:29:38.999Z,95208.71
2019-03-08T17:32:05.329Z,95214.48
2019-03-08T17:34:31.677Z,95212.25
2019-03-08T17:36:58.061Z,95211.18
2019-03-08T17:39:24.489Z,95215.19
2019-03-08T17:41:50.749Z,95213.21
2019-03-08T17:44:17.122Z,95208.63
2019-03-08T17:46:43.468Z,95210.38
2019-03-08T17:49:09.852Z,95210.52
2019-03-08T17:51:36.204Z,95216.39
2019-03-08T17:54:02.541Z,95218.61
2019-03-08T17:56:28.882Z,95219.58
2019-03-08T17:58:55.238Z,95221.80
2019-03-08T18:01:21.672Z,95224.62
2019-03-08T18:03:47.934Z,95227.53
2019-03-08T18:06:14.263Z,95234.83
2019-03-08T18:08:40.652Z,95234.70
2019-03-08T18:11:06.983Z,95237.65
2019-03-08T18:13:33.422Z,95234.96
2019-03-08T18:15:59.763Z,95243.99
2019-03-08T18:18:26.121Z,95247.97
2019-03-08T18:20:52.523Z,95254.42
2019-03-08T18:23:18.878Z,95257.22
2019-03-08T18:25:45.244Z,95261.81
2019-03-08T18:28:11.574Z,95259.70
2019-03-08T18:30:38.225Z,95265.19
2019-03-08T18:33:04.514Z,95263.11
2019-03-08T18:35:30.922Z,95266.16
2019-03-08T18:37:57.251Z,95276.80
2019-03-08T18:40:23.588Z,95276.80
2019-03-08T18:42:49.980Z,95280.92
2019-03-08T18:45:16.444Z,95277.89
2019-03-08T18:47:42.814Z,95279.64
2019-03-08T18:50:09.234Z,95277.89
2019-03-08T18:52:35.573Z,95281.63
2019-03-08T18:55:01.927Z,95287.86
2019-03-08T18:57:28.288Z,95294.29
2019-03-08T18:59:54.770Z,95293.92
2019-03-08T19:02:21.096Z,95294.76
2019-03-08T19:04:47.473Z,95299.79
2019-03-08T19:07:13.827Z,95302.38
2019-03-08T19:09:40.192Z,95305.28
2019-03-08T19:12:07.165Z,95302.84
2019-03-08T19:14:32.956Z,95302.94
2019-03-08T19:16:59.323Z,95303.77
2019-03-08T19:19:25.687Z,95307.52
2019-03-08T19:21:52.087Z,95313.95
2019-03-08T19:24:18.383Z,95316.41
2019-03-08T19:26:44.773Z,95308.91
2019-03-08T19:29:11.169Z,95307.61
2019-03-08T19:31:37.510Z,95310.66
2019-03-08T19:34:03.861Z,95323.08
2019-03-08T19:36:30.198Z,95325.89
2019-03-08T19:38:56.524Z,95330.55
2019-03-08T19:41:22.876Z,95323.41
2019-03-08T19:43:49.204Z,95324.33
2019-03-08T19:46:15.567Z,95328.56
2019-03-08T19:48:41.898Z,95337.35
2019-03-08T19:51:08.244Z,95333.81
2019-03-08T19:53:34.579Z,95325.84
2019-03-08T19:56:00.935Z,95331.70
2019-03-08T19:58:27.364Z,95339.09
2019-03-08T20:00:53.654Z,95338.27
2019-03-08T20:03:20.006Z,95341.41
2019-03-08T20:05:46.349Z,95344.48
2019-03-08T20:08:12.808Z,95347.38
2019-03-08T20:10:39.137Z,95339.78
2019-03-08T20:13:05.498Z,95343.16
2019-03-08T20:15:31.836Z,95341.72
2019-03-08T20:17:58.195Z,95343.25
2019-03-08T20:20:24.549Z,95347.89
2019-03-08T20:22:50.932Z,95347.44
2019-03-08T20:25:17.292Z,95351.42
2019-03-08T20:27:43.645Z,95351.66
2019-03-08T20:30:10.094Z,95348.58
2019-03-08T20:32:36.427Z,95349.77
2019-03-08T20:35:02.781Z,95348.94
2019-03-08T20:37:29.132Z,95351.50
2019-03-08T20:39:55.494Z,95350.32
2019-03-08T20:42:21.888Z,95349.98
2019-03-08T20:44:48.225Z,95348.80
2019-03-08T20:47:14.605Z,95354.98
2019-03-08T20:49:40.936Z,95355.60
2019-03-08T20:52:07.315Z,95358.50
2019-03-08T20:54:33.663Z,95355.22
2019-03-08T20:57:00.629Z,95355.30
2019-03-08T20:59:27.766Z,95353.42
2019-03-08T21:01:54.095Z,95355.39
2019-03-08T21:04:20.469Z,95364.02
2019-03-08T21:06:46.799Z,95365.13
2019-03-08T21:09:13.245Z,95365.90
2019-03-08T21:11:39.590Z,95357.80
2019-03-08T21:14:05.954Z,95355.23
2019-03-08T21:16:32.310Z,95353.92
2019-03-08T21:18:58.689Z,95351.03
2019-03-08T21:21:25.026Z,95355.36
2019-03-08T21:23:51.370Z,95369.39
2019-03-08T21:26:17.787Z,95369.06
2019-03-08T21:28:44.098Z,95365.29
2019-03-08T21:31:10.427Z,95358.98
2019-03-08T21:33:36.748Z,95361.55
2019-03-08T21:36:03.092Z,95364.59
2019-03-08T21:38:29.505Z,95359.31
2019-03-08T21:40:55.813Z,95362.86
2019-03-08T21:43:22.165Z,95359.14
2019-03-08T21:45:48.497Z,95365.31
2019-03-08T21:48:14.929Z,95359.23
2019-03-08T21:50:41.331Z,95359.09
2019-03-08T21:53:07.692Z,95359.44
2019-03-08T21:55:34.019Z,95360.20
2019-03-08T21:58:00.457Z,95365.12
2019-03-08T22:00:26.844Z,95370.48
2019-03-08T22:02:53.193Z,95371.31
2019-03-08T22:05:19.547Z,95374.47
2019-03-08T22:07:45.881Z,95373.50
2019-03-08T22:10:12.294Z,95369.27
2019-03-08T22:12:38.710Z,95377.20
2019-03-08T22:15:05.284Z,95382.02
2019-03-08T22:17:31.615Z,95373.69
2019-03-08T22:19:57.962Z,95375.67
2019-03-08T22:22:24.385Z,95373.05
2019-03-08T22:24:50.729Z,95376.45
2019-03-08T22:27:17.016Z,95388.24
2019-03-08T22:29:43.345Z,95379.33
2019-03-08T22:32:09.715Z,95383.49
2019-03-08T22:34:36.090Z,95381.28
2019-03-08T22:37:02.454Z,95391.21
2019-03-08T22:39:28.829Z,95402.80
2019-03-08T22:41:55.105Z,95389.31
2019-03-08T22:44:21.477Z,95396.48
2019-03-08T22:46:47.832Z,95398.20
2019-03-08T22:49:14.241Z,95397.24
2019-03-08T22:51:40.508Z,95398.03
2019-03-08T22:54:06.835Z,95402.14
2019-03-08T22:56:33.216Z,95404.02
2019-03-08T22:58:59.652Z,95403.27
2019-03-08T23:01:25.997Z,95413.72
2019-03-08T23:03:52.369Z,95414.30
2019-03-08T23:06:18.744Z,95414.52
2019-03-08T23:08:45.082Z,95422.70
2019-03-08T23:11:11.418Z,95416.72
2019-03-08T23:13:37.757Z,95415.06
2019-03-08T23:16:04.112Z,95417.64
2019-03-08T23:18:30.441Z,95422.08
2019-03-08T23:20:56.823Z,95425.84
2019-03-08T23:23:23.201Z,95423.58
2019-03-08T23:25:51.268Z,95427.69
2019-03-08T23:28:15.968Z,95433.62
2019-03-08T23:30:42.380Z,95435.61
2019-03-08T23:33:08.753Z,95431.38
2019-03-08T23:35:35.146Z,95434.08
2019-03-08T23:38:01.514Z,95430.05
2019-03-08T23:40:27.853Z,95434.28
2019-03-08T23:42:54.192Z,95438.14
2019-03-08T23:45:20.643Z,95436.40
2019-03-08T23:47:46.990Z,95432.26
2019-03-08T23:50:13.344Z,95437.16
2019-03-08T23:52:39.713Z,95432.53
2019-03-08T23:55:06.109Z,95431.92
2019-03-08T23:57:32.448Z,95435.11
2019-03-08T23:59:58.791Z,95431.67
